createdAt,value
2023-04-24T00:00:50.044Z,17.10
2023-04-24T00:03:17.990Z,17.10
2023-04-24T00:05:46.590Z,17.00
2023-04-24T00:08:15.754Z,17.10
2023-04-24T00:10:43.818Z,16.90
2023-04-24T00:13:11.553Z,16.80
2023-04-24T00:15:39.402Z,16.80
2023-04-24T00:18:07.407Z,16.80
2023-04-24T00:20:36.413Z,16.80
2023-04-24T00:23:04.476Z,16.80
2023-04-24T00:25:33.620Z,16.80
2023-04-24T00:28:01.367Z,16.80
2023-04-24T00:30:29.734Z,16.80
2023-04-24T00:32:57.586Z,17.00
2023-04-24T00:35:25.810Z,17.00
2023-04-24T00:37:53.730Z,17.10
2023-04-24T00:40:21.704Z,17.10
2023-04-24T00:42:50.874Z,17.10
2023-04-24T00:45:19.016Z,17.10
2023-04-24T00:47:47.788Z,17.00
2023-04-24T00:50:18.078Z,17.00
2023-04-24T00:52:45.985Z,16.90
2023-04-24T00:55:13.705Z,16.70
2023-04-24T00:57:41.769Z,16.60
2023-04-24T01:00:12.911Z,16.50
2023-04-24T01:02:45.046Z,16.50
2023-04-24T01:05:14.253Z,16.60
2023-04-24T01:07:46.321Z,16.70
2023-04-24T01:10:18.545Z,16.70
2023-04-24T01:12:46.448Z,16.30
2023-04-24T01:15:15.550Z,16.40
2023-04-24T01:17:43.309Z,16.10
2023-04-24T01:20:12.867Z,16.10
2023-04-24T01:22:42.414Z,16.00
2023-04-24T01:25:10.887Z,15.70
2023-04-24T01:27:38.648Z,15.90
2023-04-24T01:30:07.942Z,15.90
2023-04-24T01:32:36.306Z,16.00
2023-04-24T01:35:04.868Z,15.90
2023-04-24T01:37:33.414Z,16.00
2023-04-24T01:40:02.565Z,16.00
2023-04-24T01:42:30.825Z,15.80
2023-04-24T01:44:59.362Z,15.60
2023-04-24T01:47:27.711Z,15.60
2023-04-24T01:49:55.416Z,15.80
2023-04-24T01:52:23.135Z,15.70
2023-04-24T01:54:51.052Z,15.70
2023-04-24T01:57:20.323Z,15.60
2023-04-24T01:59:48.026Z,15.90
2023-04-24T02:02:15.846Z,15.80
2023-04-24T02:04:43.695Z,15.80
2023-04-24T02:07:11.722Z,15.60
2023-04-24T02:09:39.384Z,15.70
2023-04-24T02:12:07.266Z,15.70
2023-04-24T02:14:36.366Z,15.70
2023-04-24T02:17:04.142Z,15.80
2023-04-24T02:19:31.838Z,15.80
2023-04-24T02:21:59.529Z,15.00
2023-04-24T02:24:27.405Z,15.80
2023-04-24T02:26:55.131Z,15.80
2023-04-24T02:29:22.826Z,15.60
2023-04-24T02:31:52.153Z,15.80
2023-04-24T02:34:19.878Z,15.80
2023-04-24T02:36:47.637Z,15.50
2023-04-24T02:39:17.389Z,15.20
2023-04-24T02:41:46.091Z,15.70
2023-04-24T02:44:13.806Z,15.80
2023-04-24T02:46:42.223Z,15.70
2023-04-24T02:49:12.904Z,15.60
2023-04-24T02:51:42.126Z,15.40
2023-04-24T02:54:10.927Z,15.60
2023-04-24T02:56:38.858Z,15.70
2023-04-24T02:59:06.603Z,15.60
2023-04-24T03:01:34.578Z,15.60
2023-04-24T03:04:02.666Z,15.70
2023-04-24T03:06:32.341Z,15.60
2023-04-24T03:09:00.115Z,15.50
2023-04-24T03:11:27.828Z,15.70
2023-04-24T03:13:55.515Z,15.70
2023-04-24T03:16:23.341Z,15.70
2023-04-24T03:18:51.123Z,15.70
2023-04-24T03:21:18.908Z,15.50
2023-04-24T03:23:48.119Z,15.40
2023-04-24T03:26:15.898Z,15.00
2023-04-24T03:28:43.638Z,15.00
2023-04-24T03:31:11.520Z,15.10
2023-04-24T03:33:39.252Z,15.10
2023-04-24T03:36:07.217Z,14.70
2023-04-24T03:38:34.971Z,15.10
2023-04-24T03:41:04.064Z,14.80
2023-04-24T03:43:34.184Z,14.80
2023-04-24T03:46:02.121Z,15.10
2023-04-24T03:48:29.896Z,14.70
2023-04-24T03:50:57.665Z,14.70
2023-04-24T03:53:25.669Z,14.60
2023-04-24T03:55:53.435Z,14.70
2023-04-24T03:58:22.444Z,14.60
2023-04-24T04:00:50.813Z,14.70
2023-04-24T04:03:18.758Z,14.80
2023-04-24T04:05:46.862Z,14.80
2023-04-24T04:08:14.540Z,14.50
2023-04-24T04:10:42.264Z,14.80
2023-04-24T04:13:09.964Z,14.70
2023-04-24T04:15:39.121Z,14.80
2023-04-24T04:18:07.027Z,14.70
2023-04-24T04:20:34.767Z,14.60
2023-04-24T04:23:02.503Z,14.80
2023-04-24T04:25:30.286Z,14.80
2023-04-24T04:27:59.101Z,14.80
2023-04-24T04:30:26.897Z,14.50
2023-04-24T04:32:56.297Z,14.80
2023-04-24T04:35:24.102Z,14.70
2023-04-24T04:37:52.351Z,14.70
2023-04-24T04:40:20.285Z,14.50
2023-04-24T04:42:48.752Z,14.60
2023-04-24T04:45:18.326Z,14.40
2023-04-24T04:47:46.538Z,14.70
2023-04-24T04:50:15.706Z,14.30
2023-04-24T04:52:43.434Z,14.60
2023-04-24T04:55:14.338Z,14.70
2023-04-24T04:57:42.090Z,14.90
2023-04-24T05:00:12.670Z,14.90
2023-04-24T05:02:42.376Z,15.00
2023-04-24T05:05:10.886Z,15.00
2023-04-24T05:07:40.122Z,14.90
2023-04-24T05:10:09.205Z,15.00
2023-04-24T05:12:37.029Z,15.00
2023-04-24T05:15:05.327Z,15.00
2023-04-24T05:17:33.141Z,14.80
2023-04-24T05:20:01.697Z,14.80
2023-04-24T05:22:29.477Z,14.80
2023-04-24T05:24:58.582Z,14.80
2023-04-24T05:27:26.949Z,14.80
2023-04-24T05:29:54.848Z,14.70
2023-04-24T05:32:22.726Z,14.70
2023-04-24T05:34:50.654Z,14.90
2023-04-24T05:37:18.412Z,14.70
2023-04-24T05:39:46.247Z,15.00
2023-04-24T05:42:15.379Z,14.80
2023-04-24T05:44:43.171Z,14.80
2023-04-24T05:47:11.218Z,14.90
2023-04-24T05:49:39.032Z,15.00
2023-04-24T05:52:10.183Z,14.90
2023-04-24T05:54:37.873Z,15.10
2023-04-24T05:57:08.560Z,14.90
2023-04-24T05:59:39.377Z,15.10
2023-04-24T06:02:08.351Z,14.90
2023-04-24T06:04:36.611Z,15.40
2023-04-24T06:07:04.527Z,15.10
2023-04-24T06:09:32.269Z,15.40
2023-04-24T06:12:00.960Z,15.30
2023-04-24T06:14:28.937Z,15.10
2023-04-24T06:16:58.275Z,15.40
2023-04-24T06:19:26.293Z,15.50
2023-04-24T06:21:54.102Z,15.50
2023-04-24T06:24:21.849Z,15.40
2023-04-24T06:26:50.198Z,15.20
2023-04-24T06:29:18.017Z,15.10
2023-04-24T06:31:46.035Z,15.10
2023-04-24T06:34:15.198Z,14.90
2023-04-24T06:36:43.501Z,14.90
2023-04-24T06:39:11.365Z,15.00
2023-04-24T06:41:39.187Z,15.00
2023-04-24T06:44:06.877Z,15.00
2023-04-24T06:46:34.785Z,15.00
2023-04-24T06:49:02.770Z,14.90
2023-04-24T06:51:33.929Z,14.90
2023-04-24T06:54:01.768Z,15.00
2023-04-24T06:56:30.493Z,15.00
2023-04-24T06:58:59.209Z,15.00
2023-04-24T07:01:27.215Z,15.10
2023-04-24T07:03:55.068Z,15.10
2023-04-24T07:06:25.240Z,14.90
2023-04-24T07:08:56.198Z,14.90
2023-04-24T07:11:24.195Z,15.10
2023-04-24T07:13:51.930Z,15.10
2023-04-24T07:16:19.710Z,15.20
2023-04-24T07:18:47.488Z,15.20
2023-04-24T07:21:15.488Z,14.80
2023-04-24T07:23:43.273Z,14.90
2023-04-24T07:26:13.227Z,15.10
2023-04-24T07:28:41.216Z,14.90
2023-04-24T07:31:08.970Z,15.00
2023-04-24T07:33:37.416Z,14.90
2023-04-24T07:36:06.161Z,15.10
2023-04-24T07:38:34.077Z,14.90
2023-04-24T07:41:01.806Z,15.40
2023-04-24T07:43:30.867Z,15.60
2023-04-24T07:45:58.669Z,15.50
2023-04-24T07:48:27.442Z,15.80
2023-04-24T07:50:55.382Z,15.60
2023-04-24T07:53:23.083Z,15.90
2023-04-24T07:55:50.949Z,16.10
2023-04-24T07:58:18.663Z,16.30
2023-04-24T08:00:47.746Z,16.00
2023-04-24T08:03:16.413Z,16.30
2023-04-24T08:05:44.230Z,16.40
2023-04-24T08:08:11.965Z,16.20
2023-04-24T08:10:39.752Z,16.60
2023-04-24T08:13:07.573Z,16.60
2023-04-24T08:15:35.289Z,16.40
2023-04-24T08:18:04.424Z,16.70
2023-04-24T08:20:32.188Z,16.80
2023-04-24T08:22:59.991Z,16.80
2023-04-24T08:25:27.823Z,16.80
2023-04-24T08:27:55.630Z,16.50
2023-04-24T08:30:24.138Z,16.30
2023-04-24T08:32:52.295Z,16.40
2023-04-24T08:35:21.511Z,16.30
2023-04-24T08:37:49.246Z,16.40
2023-04-24T08:40:18.419Z,16.60
2023-04-24T08:42:46.647Z,16.40
2023-04-24T08:45:15.110Z,16.90
2023-04-24T08:47:43.679Z,17.10
2023-04-24T08:50:13.531Z,17.20
2023-04-24T08:52:44.220Z,17.30
2023-04-24T08:55:12.226Z,17.20
2023-04-24T08:57:41.392Z,17.20
2023-04-24T09:00:11.974Z,17.30
2023-04-24T09:02:44.190Z,17.30
2023-04-24T09:05:12.730Z,17.50
2023-04-24T09:07:43.900Z,17.50
2023-04-24T09:10:12.663Z,17.40
2023-04-24T09:12:40.412Z,17.10
2023-04-24T09:15:10.114Z,16.70
2023-04-24T09:17:38.305Z,17.10
2023-04-24T09:20:08.186Z,17.10
2023-04-24T09:22:36.434Z,16.50
2023-04-24T09:25:07.817Z,16.80
2023-04-24T09:27:35.872Z,16.90
2023-04-24T09:30:05.489Z,16.60
2023-04-24T09:32:33.731Z,16.50
2023-04-24T09:35:10.250Z,17.00
2023-04-24T09:37:39.138Z,17.00
2023-04-24T09:40:22.278Z,16.60
2023-04-24T09:42:54.979Z,16.80
2023-04-24T09:45:22.910Z,16.40
2023-04-24T09:47:54.923Z,16.30
2023-04-24T09:50:23.702Z,16.70
2023-04-24T09:52:58.931Z,16.40
2023-04-24T09:55:28.598Z,17.00
2023-04-24T09:57:59.265Z,16.90
2023-04-24T10:00:30.810Z,17.30
2023-04-24T10:03:00.034Z,16.90
2023-04-24T10:05:32.144Z,16.70
2023-04-24T10:08:03.375Z,16.60
2023-04-24T10:10:33.628Z,16.60
2023-04-24T10:13:02.398Z,16.20
2023-04-24T10:15:30.112Z,16.50
2023-04-24T10:18:00.552Z,16.60
2023-04-24T10:20:31.712Z,16.20
2023-04-24T10:23:00.718Z,16.50
2023-04-24T10:25:29.625Z,16.50
2023-04-24T10:28:00.560Z,16.20
2023-04-24T10:30:29.833Z,16.50
2023-04-24T10:32:57.943Z,16.60
2023-04-24T10:35:27.713Z,16.90
2023-04-24T10:37:58.950Z,16.60
2023-04-24T10:40:31.647Z,16.70
2023-04-24T10:43:01.240Z,16.20
2023-04-24T10:45:29.062Z,16.10
2023-04-24T10:48:05.035Z,16.70
2023-04-24T10:50:45.788Z,16.40
2023-04-24T10:53:19.279Z,16.50
2023-04-24T10:55:50.512Z,16.30
2023-04-24T10:58:24.196Z,16.60
2023-04-24T11:00:59.413Z,16.40
2023-04-24T11:03:30.020Z,16.80
2023-04-24T11:06:00.004Z,17.00
2023-04-24T11:08:31.351Z,16.80
2023-04-24T11:11:10.033Z,17.00
2023-04-24T11:14:12.683Z,17.00
2023-04-24T11:16:45.784Z,16.80
2023-04-24T11:19:24.607Z,17.00
2023-04-24T11:21:59.755Z,16.60
2023-04-24T11:24:33.357Z,16.50
2023-04-24T11:27:08.844Z,16.70
2023-04-24T11:29:46.093Z,16.40
2023-04-24T11:32:21.373Z,16.40
2023-04-24T11:34:50.704Z,16.40
2023-04-24T11:37:19.334Z,16.30
2023-04-24T11:39:47.296Z,16.00
2023-04-24T11:42:16.772Z,16.00
2023-04-24T11:44:48.494Z,16.30
2023-04-24T11:47:16.310Z,16.30
2023-04-24T11:49:44.121Z,16.00
2023-04-24T11:52:12.162Z,16.20
2023-04-24T11:54:39.943Z,16.30
2023-04-24T11:57:10.118Z,15.70
2023-04-24T11:59:39.363Z,16.40
2023-04-24T12:02:08.726Z,16.40
2023-04-24T12:04:43.262Z,16.40
2023-04-24T12:07:11.625Z,16.60
2023-04-24T12:09:43.775Z,16.90
2023-04-24T12:12:13.352Z,16.50
2023-04-24T12:14:45.454Z,16.80
2023-04-24T12:17:14.602Z,16.10
2023-04-24T12:19:47.930Z,16.50
2023-04-24T12:22:16.137Z,16.50
2023-04-24T12:25:04.049Z,16.60
2023-04-24T12:27:33.604Z,15.80
2023-04-24T12:30:02.469Z,16.20
2023-04-24T12:32:31.660Z,15.10
2023-04-24T12:35:00.006Z,15.70
2023-04-24T12:37:34.200Z,15.60
2023-04-24T12:40:04.724Z,15.20
2023-04-24T12:42:32.819Z,14.70
2023-04-24T12:45:02.155Z,15.30
2023-04-24T12:47:33.257Z,15.50
2023-04-24T12:50:01.308Z,15.20
2023-04-24T12:52:30.852Z,15.40
2023-04-24T12:54:59.817Z,15.20
2023-04-24T12:57:28.474Z,15.30
2023-04-24T12:59:56.703Z,15.60
2023-04-24T13:02:25.169Z,15.60
2023-04-24T13:04:55.327Z,15.80
2023-04-24T13:07:23.427Z,15.60
2023-04-24T13:09:52.939Z,15.30
2023-04-24T13:12:21.335Z,15.20
2023-04-24T13:14:49.259Z,15.20
2023-04-24T13:17:17.483Z,15.10
2023-04-24T13:19:46.825Z,15.10
2023-04-24T13:22:16.175Z,15.10
2023-04-24T13:24:44.434Z,15.20
2023-04-24T13:27:12.186Z,15.10
2023-04-24T13:29:39.908Z,14.80
2023-04-24T13:32:08.529Z,14.50
2023-04-24T13:34:36.919Z,14.40
2023-04-24T13:37:05.824Z,14.50
2023-04-24T13:39:35.374Z,14.60
2023-04-24T13:42:04.928Z,15.00
2023-04-24T13:44:33.319Z,14.50
2023-04-24T13:47:01.396Z,14.90
2023-04-24T13:49:29.433Z,14.90
2023-04-24T13:51:57.867Z,14.90
2023-04-24T13:54:26.877Z,14.70
2023-04-24T13:56:59.684Z,14.60
2023-04-24T13:59:27.659Z,14.20
2023-04-24T14:01:55.788Z,14.60
2023-04-24T14:04:23.742Z,14.60
2023-04-24T14:06:51.988Z,14.40
2023-04-24T14:09:19.771Z,14.30
2023-04-24T14:11:48.287Z,14.20
2023-04-24T14:14:17.660Z,14.00
2023-04-24T14:16:45.453Z,13.80
2023-04-24T14:19:13.255Z,14.00
2023-04-24T14:21:41.319Z,13.80
2023-04-24T14:24:10.047Z,13.90
2023-04-24T14:26:38.253Z,14.00
2023-04-24T14:29:13.993Z,13.80
2023-04-24T14:31:45.298Z,14.00
2023-04-24T14:34:13.561Z,14.20
2023-04-24T14:36:41.462Z,14.00
2023-04-24T14:39:09.224Z,14.20
2023-04-24T14:41:38.109Z,14.10
2023-04-24T14:44:06.506Z,14.00
2023-04-24T14:46:35.344Z,13.30
2023-04-24T14:49:04.584Z,13.40
2023-04-24T14:51:32.487Z,13.70
2023-04-24T14:54:00.612Z,13.60
2023-04-24T14:56:28.467Z,13.50
2023-04-24T14:58:56.907Z,12.80
2023-04-24T15:01:25.001Z,13.20
2023-04-24T15:03:53.530Z,13.50
2023-04-24T15:06:23.001Z,13.20
2023-04-24T15:08:51.049Z,13.50
2023-04-24T15:11:19.206Z,12.90
2023-04-24T15:13:47.329Z,13.40
2023-04-24T15:16:15.614Z,13.50
2023-04-24T15:18:44.313Z,13.50
2023-04-24T15:21:13.746Z,13.50
2023-04-24T15:23:42.891Z,13.70
2023-04-24T15:26:10.652Z,13.70
2023-04-24T15:28:38.405Z,13.80
2023-04-24T15:31:06.290Z,13.70
2023-04-24T15:33:34.264Z,13.90
2023-04-24T15:36:02.071Z,13.80
2023-04-24T15:38:29.815Z,13.60
2023-04-24T15:40:59.009Z,13.70
2023-04-24T15:43:26.719Z,13.70
2023-04-24T15:45:54.579Z,13.60
2023-04-24T15:48:22.409Z,13.70
2023-04-24T15:50:50.133Z,13.50
2023-04-24T15:53:22.196Z,13.70
2023-04-24T15:55:50.762Z,13.70
2023-04-24T15:58:21.432Z,13.70
2023-04-24T16:00:49.169Z,13.70
2023-04-24T16:03:17.370Z,13.90
2023-04-24T16:05:45.263Z,13.90
2023-04-24T16:08:14.216Z,13.70
2023-04-24T16:10:42.413Z,13.60
2023-04-24T16:13:10.303Z,13.90
2023-04-24T16:15:40.272Z,14.10
2023-04-24T16:18:08.262Z,13.70
2023-04-24T16:20:37.295Z,14.00
2023-04-24T16:23:05.526Z,13.80
2023-04-24T16:25:33.625Z,13.60
2023-04-24T16:28:01.355Z,13.80
2023-04-24T16:30:29.416Z,13.90
2023-04-24T16:32:58.536Z,14.00
2023-04-24T16:35:26.773Z,14.20
2023-04-24T16:37:55.320Z,14.10
2023-04-24T16:40:23.528Z,14.00
2023-04-24T16:42:52.754Z,13.70
2023-04-24T16:45:20.628Z,13.90
2023-04-24T16:47:48.581Z,13.60
2023-04-24T16:50:17.780Z,13.60
2023-04-24T16:52:46.368Z,13.90
2023-04-24T16:55:14.182Z,13.70
2023-04-24T16:57:44.171Z,13.60
2023-04-24T17:00:13.370Z,13.50
2023-04-24T17:02:46.962Z,13.60
2023-04-24T17:05:14.928Z,13.60
2023-04-24T17:07:44.094Z,13.80
2023-04-24T17:10:11.958Z,13.70
2023-04-24T17:12:39.706Z,13.30
2023-04-24T17:15:10.976Z,13.90
2023-04-24T17:17:38.834Z,13.50
2023-04-24T17:20:18.722Z,13.70
2023-04-24T17:22:52.068Z,13.80
2023-04-24T17:25:20.010Z,13.70
2023-04-24T17:27:48.104Z,13.50
2023-04-24T17:30:18.396Z,13.50
2023-04-24T17:32:46.382Z,13.50
2023-04-24T17:35:14.268Z,13.50
2023-04-24T17:37:42.149Z,13.40
2023-04-24T17:40:12.937Z,13.50
2023-04-24T17:42:41.577Z,13.60
2023-04-24T17:45:10.841Z,13.40
2023-04-24T17:47:38.775Z,13.50
2023-04-24T17:50:07.671Z,13.60
2023-04-24T17:52:36.592Z,13.50
2023-04-24T17:55:04.974Z,13.60
2023-04-24T17:57:34.257Z,13.60
2023-04-24T18:00:02.668Z,13.70
2023-04-24T18:02:30.576Z,13.70
2023-04-24T18:04:58.447Z,13.70
2023-04-24T18:07:27.941Z,13.70
2023-04-24T18:09:56.411Z,13.70
2023-04-24T18:12:24.690Z,13.60
2023-04-24T18:15:06.267Z,13.50
2023-04-24T18:17:41.520Z,13.50
2023-04-24T18:20:12.800Z,13.60
2023-04-24T18:22:41.060Z,13.50
2023-04-24T18:25:10.056Z,13.60
2023-04-24T18:27:38.149Z,13.70
2023-04-24T18:30:14.504Z,13.90
2023-04-24T18:32:43.243Z,13.50
2023-04-24T18:35:11.993Z,13.70
2023-04-24T18:37:40.683Z,13.70
2023-04-24T18:40:12.526Z,13.80
2023-04-24T18:42:40.737Z,13.50
2023-04-24T18:45:13.843Z,13.50
2023-04-24T18:47:42.914Z,13.50
2023-04-24T18:50:11.827Z,13.40
2023-04-24T18:52:39.688Z,13.30
2023-04-24T18:55:09.753Z,13.20
2023-04-24T18:57:40.426Z,13.10
2023-04-24T19:00:11.077Z,13.20
2023-04-24T19:02:39.037Z,13.00
2023-04-24T19:05:07.318Z,13.00
2023-04-24T19:07:35.394Z,13.20
2023-04-24T19:10:03.323Z,13.10
2023-04-24T19:12:31.142Z,13.30
2023-04-24T19:14:59.011Z,13.20
2023-04-24T19:17:28.186Z,13.20
2023-04-24T19:19:55.976Z,13.20
2023-04-24T19:22:23.817Z,13.30
2023-04-24T19:24:53.637Z,13.30
2023-04-24T19:27:22.048Z,13.30
2023-04-24T19:29:51.032Z,13.10
2023-04-24T19:32:18.915Z,13.30
2023-04-24T19:34:48.086Z,13.20
2023-04-24T19:37:15.932Z,13.20
2023-04-24T19:39:43.797Z,13.20
2023-04-24T19:42:11.559Z,13.20
2023-04-24T19:44:39.834Z,13.00
2023-04-24T19:47:08.127Z,13.00
2023-04-24T19:49:35.872Z,12.90
2023-04-24T19:52:05.219Z,12.90
2023-04-24T19:54:33.022Z,12.80
2023-04-24T19:57:01.652Z,12.90
2023-04-24T19:59:29.551Z,12.80
2023-04-24T20:01:57.407Z,12.80
2023-04-24T20:04:25.427Z,12.60
2023-04-24T20:06:53.603Z,12.70
2023-04-24T20:09:22.694Z,12.70
2023-04-24T20:11:53.434Z,12.70
2023-04-24T20:14:21.238Z,12.80
2023-04-24T20:16:49.384Z,12.70
2023-04-24T20:19:17.166Z,12.90
2023-04-24T20:21:45.582Z,12.80
2023-04-24T20:24:13.675Z,13.00
2023-04-24T20:26:43.016Z,12.90
2023-04-24T20:29:11.212Z,12.80
2023-04-24T20:31:39.440Z,12.80
2023-04-24T20:34:07.236Z,12.80
2023-04-24T20:36:35.072Z,12.70
2023-04-24T20:39:04.878Z,12.60
2023-04-24T20:41:33.484Z,12.60
2023-04-24T20:44:02.968Z,12.60
2023-04-24T20:46:30.793Z,12.50
2023-04-24T20:48:58.660Z,12.50
2023-04-24T20:51:28.225Z,12.40
2023-04-24T20:53:55.973Z,12.40
2023-04-24T20:56:24.762Z,12.40
2023-04-24T20:58:55.300Z,12.30
2023-04-24T21:01:26.095Z,12.40
2023-04-24T21:03:54.210Z,12.40
2023-04-24T21:06:22.624Z,12.40
2023-04-24T21:08:50.979Z,12.50
2023-04-24T21:11:19.347Z,12.40
2023-04-24T21:13:47.294Z,12.40
2023-04-24T21:16:15.340Z,12.40
2023-04-24T21:18:44.509Z,12.60
2023-04-24T21:21:12.268Z,12.50
2023-04-24T21:23:40.081Z,12.50
2023-04-24T21:26:08.122Z,12.60
2023-04-24T21:28:36.104Z,12.40
2023-04-24T21:31:04.374Z,12.50
2023-04-24T21:33:32.055Z,12.50
2023-04-24T21:36:01.329Z,12.60
2023-04-24T21:38:29.060Z,12.70
2023-04-24T21:40:56.837Z,12.50
2023-04-24T21:43:30.818Z,12.60
2023-04-24T21:46:05.432Z,12.30
2023-04-24T21:48:33.181Z,12.40
2023-04-24T21:51:02.339Z,12.30
2023-04-24T21:53:30.584Z,12.50
2023-04-24T21:55:58.442Z,12.50
2023-04-24T21:58:26.588Z,12.50
2023-04-24T22:00:54.612Z,12.60
2023-04-24T22:03:22.461Z,12.60
2023-04-24T22:05:50.502Z,12.50
2023-04-24T22:08:20.096Z,12.50
2023-04-24T22:10:47.925Z,12.50
2023-04-24T22:13:15.840Z,12.60
2023-04-24T22:15:43.578Z,12.50
2023-04-24T22:18:11.878Z,12.50
2023-04-24T22:20:39.785Z,12.60
2023-04-24T22:23:07.520Z,12.50
2023-04-24T22:25:36.685Z,12.40
2023-04-24T22:28:04.776Z,12.50
2023-04-24T22:30:32.535Z,12.40
2023-04-24T22:33:00.543Z,12.20
2023-04-24T22:35:28.545Z,12.30
2023-04-24T22:37:57.092Z,12.40
2023-04-24T22:40:26.301Z,12.40
2023-04-24T22:42:55.428Z,12.30
2023-04-24T22:45:23.885Z,12.40
2023-04-24T22:47:51.975Z,12.40
2023-04-24T22:50:20.334Z,12.30
2023-04-24T22:52:48.579Z,12.20
2023-04-24T22:55:16.363Z,12.50
2023-04-24T22:57:44.188Z,12.20
2023-04-24T23:00:14.318Z,12.30
2023-04-24T23:02:42.537Z,12.40
2023-04-24T23:05:11.788Z,12.60
2023-04-24T23:07:39.808Z,12.60
2023-04-24T23:10:08.585Z,12.80
2023-04-24T23:12:36.434Z,12.80
2023-04-24T23:15:04.572Z,12.70
2023-04-24T23:17:33.793Z,12.60
2023-04-24T23:20:01.735Z,12.80
2023-04-24T23:22:29.820Z,12.60
2023-04-24T23:24:57.572Z,12.50
2023-04-24T23:27:25.561Z,12.70
2023-04-24T23:29:53.331Z,12.70
2023-04-24T23:32:21.138Z,12.70
2023-04-24T23:34:50.721Z,12.30
2023-04-24T23:37:19.309Z,12.60
2023-04-24T23:39:47.066Z,12.50
2023-04-24T23:42:14.853Z,12.60
2023-04-24T23:44:42.617Z,12.30
2023-04-24T23:47:10.463Z,12.20
2023-04-24T23:49:38.262Z,12.40
2023-04-24T23:52:08.497Z,12.30
2023-04-24T23:54:36.205Z,12.40
2023-04-24T23:57:04.529Z,12.50
2023-04-24T23:59:32.353Z,12.20
